Flight Track Log - Related Links

Times and Time Zones

All times are in EDT time to prevent confusion due to time zone crossing. See the SWA3497 flight status page for this flight to view local times or setup timezone preferences in your user account.

Time Position Orientation Groundspeed Altitude Reporting Facility
EDT Latitude Longitude Course Direction KTS km/h feet Rate Location/Type
Fri 16:16:08 39.1833 -76.7167 140° Southeast 169 312 2.000  Level Potomac TRACON
Fri 16:18:07 39.1256 -76.6539 140° Southeast 107 198 6.500 2.300 Climbing Washington Center
Fri 16:19:08 39.1325 -76.5469 85° East 182 336 8.900 1.475 Climbing Washington Center
Fri 16:20:05 39.1167 -76.4422 101° East 253 468 9.400 2.085 Climbing Washington Center
Fri 16:21:06 39.0653 -76.3536 127° Southeast 273 505 13.000 3.421 Climbing Washington Center
Fri 16:22:06 39.0514 -76.2383 99° East 296 549 16.300 2.521 Climbing Washington Center
Fri 16:23:05 39.0664 -76.0969 82° East 326 604 18.000 1.361 Climbing Washington Center
Fri 16:24:05 39.1314 -75.9903 52° Northeast 328 607 19.000 1.884 Climbing Washington Center
Fri 16:25:06 39.1986 -75.8756 53° Northeast 367 679 21.800 2.410 Climbing Washington Center
Fri 16:26:07 39.2822 -75.7658 45° Northeast 393 727 23.900 2.231 Climbing Washington Center
Fri 16:27:07 39.3656 -75.6586 45° Northeast 412 763 26.300 1.537 Climbing Washington Center
Fri 16:28:08 39.4511 -75.5458 45° Northeast 423 784 27.000 353 Climbing Washington Center
Fri 16:29:06 39.5406 -75.4300 45° Northeast 434 803 27.000  Level Washington Center
Fri 16:30:07 39.6278 -75.3167 45° Northeast 434 803 27.000  Level Washington Center
Fri 16:31:05 39.7108 -75.2003 47° Northeast 434 803 27.000  Level Washington Center
Fri 16:31:52 39.7664 -75.1217 47° Northeast 436 808 27.000  Level New York Center
Fri 16:32:53 39.8500 -75.0025 48° Northeast 458 848 27.000  Level New York Center
Fri 16:33:54 39.9336 -74.8831 48° Northeast 450 834 27.000  Level New York Center
Fri 16:34:55 40.0256 -74.7531 47° Northeast 450 834 27.000  Level New York Center
Fri 16:35:52 40.1086 -74.6328 48° Northeast 450 834 27.000  Level New York Center
Fri 16:36:53 40.1997 -74.5264 42° Northeast 450 834 27.000  Level New York Center
Fri 16:37:53 40.2925 -74.4228 40° Northeast 439 813 27.000  Level New York Center
Fri 16:38:54 40.3853 -74.3214 40° Northeast 433 801 27.000  Level New York Center
Fri 16:39:53 40.4781 -74.2142 41° Northeast 433 801 27.000 -252 Level New York Center
Fri 16:40:53 40.5706 -74.1125 40° Northeast 433 801 26.500 -887 Descending New York Center
Fri 16:43:16 40.7844 -73.8708 41° Northeast 442 819 24.000 -739 Descending Boston Center
Fri 16:44:16 40.8817 -73.7550 42° Northeast 431 798 24.000 -400 Level Boston Center
Fri 16:45:16 40.9686 -73.6386 45° Northeast 426 789 23.200 -500 Descending Boston Center
Fri 16:46:16 41.0714 -73.5717 26° Northeast 405 750 23.000 -300 Descending Boston Center
Fri 16:47:16 41.1839 -73.5681 North 391 724 22.600 -700 Descending Boston Center
Fri 16:48:16 41.2944 -73.5644 North 391 724 21.600 -1.100 Descending Boston Center
Fri 16:49:16 41.4028 -73.5608 North 391 724 20.400 -1.750 Descending Boston Center
Fri 16:50:16 41.5069 -73.5544 North 379 702 18.100 -1.650 Descending Boston Center
Fri 16:51:16 41.6008 -73.5506 North 373 690 17.100 -1.050 Descending Boston Center
Fri 16:52:16 41.7136 -73.5442 North 367 679 16.000 -1.100 Descending Boston Center
Fri 16:53:16 41.8156 -73.5431 360° North 367 679 14.900 -1.000 Descending Boston Center
Fri 16:54:16 41.9136 -73.5364 North 362 671 14.000 -982 Descending Boston Center
Fri 16:55:06 42.0033 -73.5325 North 357 661 13.100 -1.000 Descending Boston Center
Fri 16:56:16 42.1033 -73.5286 North 352 652 12.000 -923 Descending Boston Center
Fri 16:57:16 42.2078 -73.5136 North 346 641 11.100 -750 Descending Boston Center
Fri 16:58:16 42.2931 -73.5403 347° North 327 605 10.500 -1.150 Descending Boston Center
Fri 16:59:16 42.3594 -73.5556 350° North 295 546 8.800 -2.050 Descending Boston Center
Fri 17:00:16 42.4406 -73.5767 349° North 268 496 6.400 -2.000 Descending Boston Center
Fri 17:01:22 42.5153 -73.6006 347° North 258 478 4.600 -1.181 Descending Boston Center
Fri 17:02:23 42.5819 -73.6217 347° North 242 447 3.900 -835 Descending Boston Center
Fri 17:03:17 42.6400 -73.6397 347° North 228 422 3.000 -887 Descending Boston Center
Fri 17:04:18 42.6981 -73.6606 345° North 211 391 2.200 -541 Descending Boston Center
Fri 17:05:19 42.7414 -73.6953 330° Northwest 172 319 1.900 -369 Descending Boston Center
Fri 17:06:28 42.7828 -73.7386 322° Northwest 163 303 1.400 -435 Descending Boston Center
Fri 17:11:00 42.7557 -73.8000 180° South  Level FlightAware Approximate

Login

Don't have an account? Register now (free) for customized features, flight alerts, and more!